sensor_id;sensor_type;location;lat;lon;timestamp;P1;durP1;ratioP1;P2;durP2;ratioP2
43682;SDS011;29285;52.128;21.060;2023-09-19T00:00:32;20.20;;;11.10;;
43682;SDS011;29285;52.128;21.060;2023-09-19T00:05:54;10.60;;;9.50;;
43682;SDS011;29285;52.128;21.060;2023-09-19T00:10:56;11.80;;;10.70;;
43682;SDS011;29285;52.128;21.060;2023-09-19T00:16:09;12.30;;;11.10;;
43682;SDS011;29285;52.128;21.060;2023-09-19T00:21:11;16.10;;;10.90;;
43682;SDS011;29285;52.128;21.060;2023-09-19T00:26:12;12.80;;;11.40;;
43682;SDS011;29285;52.128;21.060;2023-09-19T00:31:13;12.20;;;11.00;;
43682;SDS011;29285;52.128;21.060;2023-09-19T00:36:14;12.80;;;11.50;;
43682;SDS011;29285;52.128;21.060;2023-09-19T00:41:15;12.20;;;10.90;;
43682;SDS011;29285;52.128;21.060;2023-09-19T00:46:17;11.90;;;10.40;;
43682;SDS011;29285;52.128;21.060;2023-09-19T00:51:18;12.90;;;11.40;;
43682;SDS011;29285;52.128;21.060;2023-09-19T01:01:23;14.40;;;10.90;;
43682;SDS011;29285;52.128;21.060;2023-09-19T01:06:25;14.40;;;11.90;;
43682;SDS011;29285;52.128;21.060;2023-09-19T01:11:32;11.70;;;10.60;;
43682;SDS011;29285;52.128;21.060;2023-09-19T01:22:17;14.90;;;12.50;;
43682;SDS011;29285;52.128;21.060;2023-09-19T01:27:36;14.20;;;10.80;;
43682;SDS011;29285;52.128;21.060;2023-09-19T01:32:44;13.00;;;11.80;;
43682;SDS011;29285;52.128;21.060;2023-09-19T01:37:46;13.60;;;12.00;;
43682;SDS011;29285;52.128;21.060;2023-09-19T01:54:03;12.00;;;10.80;;
43682;SDS011;29285;52.128;21.060;2023-09-19T01:59:10;15.00;;;11.20;;
43682;SDS011;29285;52.128;21.060;2023-09-19T02:04:16;14.10;;;12.10;;
43682;SDS011;29285;52.128;21.060;2023-09-19T02:09:17;13.00;;;11.70;;
43682;SDS011;29285;52.128;21.060;2023-09-19T02:14:18;12.60;;;10.90;;
43682;SDS011;29285;52.128;21.060;2023-09-19T02:19:20;13.50;;;11.40;;
43682;SDS011;29285;52.128;21.060;2023-09-19T02:24:21;13.90;;;11.40;;
43682;SDS011;29285;52.128;21.060;2023-09-19T02:29:27;13.10;;;11.50;;
43682;SDS011;29285;52.128;21.060;2023-09-19T02:34:29;13.90;;;12.00;;
43682;SDS011;29285;52.128;21.060;2023-09-19T02:39:30;14.40;;;11.60;;
43682;SDS011;29285;52.128;21.060;2023-09-19T02:44:32;13.70;;;11.00;;
43682;SDS011;29285;52.128;21.060;2023-09-19T02:49:34;14.00;;;11.60;;
43682;SDS011;29285;52.128;21.060;2023-09-19T02:54:35;14.10;;;11.30;;
43682;SDS011;29285;52.128;21.060;2023-09-19T02:59:36;14.70;;;12.70;;
43682;SDS011;29285;52.128;21.060;2023-09-19T03:04:37;13.60;;;11.50;;
43682;SDS011;29285;52.128;21.060;2023-09-19T03:09:38;13.00;;;11.70;;
43682;SDS011;29285;52.128;21.060;2023-09-19T03:14:39;13.30;;;11.60;;
43682;SDS011;29285;52.128;21.060;2023-09-19T03:19:40;14.30;;;11.80;;
43682;SDS011;29285;52.128;21.060;2023-09-19T03:24:41;12.40;;;11.20;;
43682;SDS011;29285;52.128;21.060;2023-09-19T03:29:44;13.10;;;11.80;;
43682;SDS011;29285;52.128;21.060;2023-09-19T03:34:45;14.40;;;11.40;;
43682;SDS011;29285;52.128;21.060;2023-09-19T03:44:50;14.20;;;11.20;;
43682;SDS011;29285;52.128;21.060;2023-09-19T03:49:52;14.00;;;10.90;;
43682;SDS011;29285;52.128;21.060;2023-09-19T03:54:53;14.80;;;11.10;;
43682;SDS011;29285;52.128;21.060;2023-09-19T03:59:54;15.60;;;12.20;;
43682;SDS011;29285;52.128;21.060;2023-09-19T04:04:56;13.00;;;11.60;;
43682;SDS011;29285;52.128;21.060;2023-09-19T04:09:57;12.30;;;11.20;;
43682;SDS011;29285;52.128;21.060;2023-09-19T04:14:58;14.00;;;12.00;;
43682;SDS011;29285;52.128;21.060;2023-09-19T04:19:59;15.70;;;11.30;;
43682;SDS011;29285;52.128;21.060;2023-09-19T04:25:00;14.30;;;11.30;;
43682;SDS011;29285;52.128;21.060;2023-09-19T04:30:01;14.50;;;12.20;;
43682;SDS011;29285;52.128;21.060;2023-09-19T04:35:08;11.90;;;10.80;;
43682;SDS011;29285;52.128;21.060;2023-09-19T04:40:10;13.00;;;11.00;;
43682;SDS011;29285;52.128;21.060;2023-09-19T04:45:20;13.00;;;11.70;;
43682;SDS011;29285;52.128;21.060;2023-09-19T04:50:21;13.20;;;11.40;;
43682;SDS011;29285;52.128;21.060;2023-09-19T04:55:23;12.70;;;11.20;;
43682;SDS011;29285;52.128;21.060;2023-09-19T05:00:24;17.70;;;11.30;;
43682;SDS011;29285;52.128;21.060;2023-09-19T05:05:28;12.80;;;11.40;;
43682;SDS011;29285;52.128;21.060;2023-09-19T05:10:29;13.50;;;11.30;;
43682;SDS011;29285;52.128;21.060;2023-09-19T05:15:30;12.60;;;11.30;;
43682;SDS011;29285;52.128;21.060;2023-09-19T05:20:31;14.60;;;11.20;;
43682;SDS011;29285;52.128;21.060;2023-09-19T05:25:34;13.10;;;11.80;;
43682;SDS011;29285;52.128;21.060;2023-09-19T05:30:39;12.70;;;11.20;;
43682;SDS011;29285;52.128;21.060;2023-09-19T05:35:41;13.90;;;12.00;;
43682;SDS011;29285;52.128;21.060;2023-09-19T05:40:42;12.80;;;11.10;;
43682;SDS011;29285;52.128;21.060;2023-09-19T05:45:45;15.10;;;10.80;;
43682;SDS011;29285;52.128;21.060;2023-09-19T05:50:46;12.10;;;10.70;;
43682;SDS011;29285;52.128;21.060;2023-09-19T05:55:49;14.10;;;11.30;;
43682;SDS011;29285;52.128;21.060;2023-09-19T06:00:50;11.70;;;10.40;;
43682;SDS011;29285;52.128;21.060;2023-09-19T06:05:51;12.00;;;10.70;;
43682;SDS011;29285;52.128;21.060;2023-09-19T06:10:53;11.90;;;10.70;;
43682;SDS011;29285;52.128;21.060;2023-09-19T06:15:55;13.10;;;10.80;;
43682;SDS011;29285;52.128;21.060;2023-09-19T06:20:57;13.50;;;11.00;;
43682;SDS011;29285;52.128;21.060;2023-09-19T06:25:59;12.70;;;11.20;;
43682;SDS011;29285;52.128;21.060;2023-09-19T06:31:02;12.40;;;10.70;;
43682;SDS011;29285;52.128;21.060;2023-09-19T06:36:03;12.70;;;10.80;;
43682;SDS011;29285;52.128;21.060;2023-09-19T06:41:05;12.70;;;11.20;;
43682;SDS011;29285;52.128;21.060;2023-09-19T06:46:07;10.30;;;9.20;;
43682;SDS011;29285;52.128;21.060;2023-09-19T06:51:09;12.60;;;10.20;;
43682;SDS011;29285;52.128;21.060;2023-09-19T06:56:10;13.20;;;10.70;;
43682;SDS011;29285;52.128;21.060;2023-09-19T07:01:11;12.00;;;10.80;;
43682;SDS011;29285;52.128;21.060;2023-09-19T07:06:16;12.30;;;10.70;;
43682;SDS011;29285;52.128;21.060;2023-09-19T07:11:17;11.30;;;10.20;;
43682;SDS011;29285;52.128;21.060;2023-09-19T07:16:18;12.00;;;10.60;;
43682;SDS011;29285;52.128;21.060;2023-09-19T07:21:29;12.80;;;11.50;;
43682;SDS011;29285;52.128;21.060;2023-09-19T07:26:30;12.60;;;10.80;;
43682;SDS011;29285;52.128;21.060;2023-09-19T07:31:31;12.80;;;10.70;;
43682;SDS011;29285;52.128;21.060;2023-09-19T07:36:33;12.30;;;10.80;;
43682;SDS011;29285;52.128;21.060;2023-09-19T07:41:35;12.10;;;10.90;;
43682;SDS011;29285;52.128;21.060;2023-09-19T07:46:36;13.60;;;12.20;;
43682;SDS011;29285;52.128;21.060;2023-09-19T12:41:04;7.30;;;5.10;;
43682;SDS011;29285;52.128;21.060;2023-09-19T12:51:12;6.00;;;5.20;;
43682;SDS011;29285;52.128;21.060;2023-09-19T12:56:13;7.90;;;5.50;;
43682;SDS011;29285;52.128;21.060;2023-09-19T13:01:16;7.70;;;5.10;;
43682;SDS011;29285;52.128;21.060;2023-09-19T13:06:34;10.10;;;6.70;;
43682;SDS011;29285;52.128;21.060;2023-09-19T13:11:39;8.80;;;5.10;;
43682;SDS011;29285;52.128;21.060;2023-09-19T13:27:06;6.20;;;5.70;;
43682;SDS011;29285;52.128;21.060;2023-09-19T13:32:09;7.60;;;6.70;;
43682;SDS011;29285;52.128;21.060;2023-09-19T13:37:12;16.90;;;6.80;;
43682;SDS011;29285;52.128;21.060;2023-09-19T13:42:13;7.80;;;6.30;;
43682;SDS011;29285;52.128;21.060;2023-09-19T13:47:15;16.10;;;6.70;;
43682;SDS011;29285;52.128;21.060;2023-09-19T13:52:17;8.30;;;5.60;;
43682;SDS011;29285;52.128;21.060;2023-09-19T13:57:18;7.80;;;6.30;;
43682;SDS011;29285;52.128;21.060;2023-09-19T14:02:19;8.30;;;6.70;;
43682;SDS011;29285;52.128;21.060;2023-09-19T14:07:23;7.90;;;6.60;;
43682;SDS011;29285;52.128;21.060;2023-09-19T14:12:29;8.40;;;7.20;;
43682;SDS011;29285;52.128;21.060;2023-09-19T14:17:31;11.30;;;7.10;;
43682;SDS011;29285;52.128;21.060;2023-09-19T14:22:32;9.20;;;7.30;;
43682;SDS011;29285;52.128;21.060;2023-09-19T14:27:34;9.30;;;7.50;;
43682;SDS011;29285;52.128;21.060;2023-09-19T14:32:35;8.40;;;6.40;;
43682;SDS011;29285;52.128;21.060;2023-09-19T14:37:36;9.40;;;8.60;;
43682;SDS011;29285;52.128;21.060;2023-09-19T14:42:39;9.20;;;8.20;;
43682;SDS011;29285;52.128;21.060;2023-09-19T14:47:40;9.60;;;8.40;;
43682;SDS011;29285;52.128;21.060;2023-09-19T14:52:41;10.40;;;8.60;;
43682;SDS011;29285;52.128;21.060;2023-09-19T14:57:42;9.20;;;8.20;;
43682;SDS011;29285;52.128;21.060;2023-09-19T15:02:46;10.40;;;9.40;;
43682;SDS011;29285;52.128;21.060;2023-09-19T15:07:50;11.90;;;8.80;;
43682;SDS011;29285;52.128;21.060;2023-09-19T15:12:51;11.10;;;9.20;;
43682;SDS011;29285;52.128;21.060;2023-09-19T15:17:52;13.00;;;9.30;;
43682;SDS011;29285;52.128;21.060;2023-09-19T15:22:54;10.50;;;9.50;;
43682;SDS011;29285;52.128;21.060;2023-09-19T15:27:55;10.90;;;9.80;;
43682;SDS011;29285;52.128;21.060;2023-09-19T15:32:56;11.60;;;9.80;;
43682;SDS011;29285;52.128;21.060;2023-09-19T15:37:57;11.00;;;9.30;;
43682;SDS011;29285;52.128;21.060;2023-09-19T15:43:00;9.90;;;8.90;;
43682;SDS011;29285;52.128;21.060;2023-09-19T15:48:02;8.40;;;7.50;;
43682;SDS011;29285;52.128;21.060;2023-09-19T15:53:03;8.30;;;7.40;;
43682;SDS011;29285;52.128;21.060;2023-09-19T15:58:04;8.20;;;7.40;;
43682;SDS011;29285;52.128;21.060;2023-09-19T16:03:06;10.00;;;8.90;;
43682;SDS011;29285;52.128;21.060;2023-09-19T16:08:08;11.10;;;7.80;;
43682;SDS011;29285;52.128;21.060;2023-09-19T16:13:09;8.40;;;7.30;;
43682;SDS011;29285;52.128;21.060;2023-09-19T16:18:09;10.70;;;7.60;;
43682;SDS011;29285;52.128;21.060;2023-09-19T16:23:10;9.30;;;7.50;;
43682;SDS011;29285;52.128;21.060;2023-09-19T16:28:11;8.10;;;7.30;;
43682;SDS011;29285;52.128;21.060;2023-09-19T16:33:12;10.50;;;7.90;;
43682;SDS011;29285;52.128;21.060;2023-09-19T16:38:13;10.40;;;8.30;;
43682;SDS011;29285;52.128;21.060;2023-09-19T16:43:14;8.40;;;7.60;;
43682;SDS011;29285;52.128;21.060;2023-09-19T16:48:15;10.40;;;7.60;;
43682;SDS011;29285;52.128;21.060;2023-09-19T16:53:17;7.70;;;6.80;;
43682;SDS011;29285;52.128;21.060;2023-09-19T16:58:18;8.80;;;7.70;;
43682;SDS011;29285;52.128;21.060;2023-09-19T17:03:19;9.50;;;7.10;;
43682;SDS011;29285;52.128;21.060;2023-09-19T17:08:20;8.30;;;6.60;;
43682;SDS011;29285;52.128;21.060;2023-09-19T17:13:23;7.90;;;7.20;;
43682;SDS011;29285;52.128;21.060;2023-09-19T17:18:24;7.10;;;6.50;;
43682;SDS011;29285;52.128;21.060;2023-09-19T17:23:28;7.70;;;6.00;;
43682;SDS011;29285;52.128;21.060;2023-09-19T17:28:30;7.50;;;6.20;;
43682;SDS011;29285;52.128;21.060;2023-09-19T17:33:31;7.30;;;5.80;;
43682;SDS011;29285;52.128;21.060;2023-09-19T17:38:31;5.20;;;4.50;;
43682;SDS011;29285;52.128;21.060;2023-09-19T17:43:33;5.90;;;4.60;;
43682;SDS011;29285;52.128;21.060;2023-09-19T17:48:38;4.40;;;3.90;;
43682;SDS011;29285;52.128;21.060;2023-09-19T17:53:43;4.60;;;4.00;;
43682;SDS011;29285;52.128;21.060;2023-09-19T17:58:45;7.70;;;3.90;;
43682;SDS011;29285;52.128;21.060;2023-09-19T18:03:49;6.80;;;4.60;;
43682;SDS011;29285;52.128;21.060;2023-09-19T18:09:02;7.20;;;4.50;;
43682;SDS011;29285;52.128;21.060;2023-09-19T18:14:07;7.40;;;4.10;;
43682;SDS011;29285;52.128;21.060;2023-09-19T18:19:08;6.00;;;3.70;;
43682;SDS011;29285;52.128;21.060;2023-09-19T18:24:09;6.00;;;4.20;;
43682;SDS011;29285;52.128;21.060;2023-09-19T18:29:14;8.30;;;3.90;;
43682;SDS011;29285;52.128;21.060;2023-09-19T18:34:15;5.20;;;3.50;;
43682;SDS011;29285;52.128;21.060;2023-09-19T18:39:16;4.10;;;3.70;;
43682;SDS011;29285;52.128;21.060;2023-09-19T18:49:21;7.80;;;3.70;;
43682;SDS011;29285;52.128;21.060;2023-09-19T18:54:23;4.40;;;3.90;;
43682;SDS011;29285;52.128;21.060;2023-09-19T18:59:24;6.20;;;4.10;;
43682;SDS011;29285;52.128;21.060;2023-09-19T19:04:25;9.90;;;3.80;;
43682;SDS011;29285;52.128;21.060;2023-09-19T19:09:28;5.20;;;3.80;;
43682;SDS011;29285;52.128;21.060;2023-09-19T19:14:29;7.20;;;3.40;;
43682;SDS011;29285;52.128;21.060;2023-09-19T19:19:30;8.20;;;4.40;;
43682;SDS011;29285;52.128;21.060;2023-09-19T19:24:32;7.20;;;3.80;;
43682;SDS011;29285;52.128;21.060;2023-09-19T19:29:34;9.40;;;4.10;;
43682;SDS011;29285;52.128;21.060;2023-09-19T19:34:35;5.40;;;3.60;;
43682;SDS011;29285;52.128;21.060;2023-09-19T19:39:36;4.80;;;3.40;;
43682;SDS011;29285;52.128;21.060;2023-09-19T19:44:37;4.10;;;3.50;;
43682;SDS011;29285;52.128;21.060;2023-09-19T19:49:38;5.90;;;3.50;;
43682;SDS011;29285;52.128;21.060;2023-09-19T19:54:39;3.80;;;3.20;;
43682;SDS011;29285;52.128;21.060;2023-09-19T19:59:40;5.20;;;3.70;;
43682;SDS011;29285;52.128;21.060;2023-09-19T20:04:41;6.90;;;4.00;;
43682;SDS011;29285;52.128;21.060;2023-09-19T20:09:42;5.20;;;4.50;;
43682;SDS011;29285;52.128;21.060;2023-09-19T20:14:43;6.00;;;3.70;;
43682;SDS011;29285;52.128;21.060;2023-09-19T20:19:44;7.50;;;4.00;;
43682;SDS011;29285;52.128;21.060;2023-09-19T20:24:45;6.50;;;4.20;;
43682;SDS011;29285;52.128;21.060;2023-09-19T20:29:47;7.30;;;4.30;;
43682;SDS011;29285;52.128;21.060;2023-09-19T20:34:48;8.00;;;4.40;;
43682;SDS011;29285;52.128;21.060;2023-09-19T20:39:50;7.00;;;4.60;;
43682;SDS011;29285;52.128;21.060;2023-09-19T20:44:53;4.90;;;4.10;;
43682;SDS011;29285;52.128;21.060;2023-09-19T20:49:58;4.50;;;3.90;;
43682;SDS011;29285;52.128;21.060;2023-09-19T20:54:59;10.50;;;4.40;;
43682;SDS011;29285;52.128;21.060;2023-09-19T21:00:01;4.50;;;3.70;;
43682;SDS011;29285;52.128;21.060;2023-09-19T21:05:04;6.80;;;4.60;;
43682;SDS011;29285;52.128;21.060;2023-09-19T21:10:06;8.80;;;4.40;;
43682;SDS011;29285;52.128;21.060;2023-09-19T21:15:07;6.70;;;4.30;;
43682;SDS011;29285;52.128;21.060;2023-09-19T21:20:11;5.20;;;4.70;;
43682;SDS011;29285;52.128;21.060;2023-09-19T21:25:19;4.70;;;4.20;;
43682;SDS011;29285;52.128;21.060;2023-09-19T21:30:20;6.80;;;4.40;;
43682;SDS011;29285;52.128;21.060;2023-09-19T21:35:21;4.80;;;3.90;;
43682;SDS011;29285;52.128;21.060;2023-09-19T21:40:23;6.90;;;4.90;;
43682;SDS011;29285;52.128;21.060;2023-09-19T21:45:24;5.60;;;4.20;;
43682;SDS011;29285;52.128;21.060;2023-09-19T21:50:25;6.70;;;3.90;;
43682;SDS011;29285;52.128;21.060;2023-09-19T21:55:27;5.60;;;3.70;;
43682;SDS011;29285;52.128;21.060;2023-09-19T22:00:30;9.60;;;4.30;;
43682;SDS011;29285;52.128;21.060;2023-09-19T22:05:35;13.30;;;4.20;;
43682;SDS011;29285;52.128;21.060;2023-09-19T22:10:46;4.70;;;4.00;;
43682;SDS011;29285;52.128;21.060;2023-09-19T22:15:49;5.80;;;4.40;;
43682;SDS011;29285;52.128;21.060;2023-09-19T22:20:50;5.30;;;3.80;;
43682;SDS011;29285;52.128;21.060;2023-09-19T22:25:54;6.80;;;3.60;;
43682;SDS011;29285;52.128;21.060;2023-09-19T22:30:55;5.50;;;4.00;;
43682;SDS011;29285;52.128;21.060;2023-09-19T22:35:56;4.10;;;3.70;;
43682;SDS011;29285;52.128;21.060;2023-09-19T22:40:57;7.30;;;4.40;;
43682;SDS011;29285;52.128;21.060;2023-09-19T22:46:03;5.00;;;4.00;;
43682;SDS011;29285;52.128;21.060;2023-09-19T22:51:09;6.30;;;4.20;;
43682;SDS011;29285;52.128;21.060;2023-09-19T23:01:15;4.90;;;3.60;;
43682;SDS011;29285;52.128;21.060;2023-09-19T23:06:40;8.40;;;4.10;;
43682;SDS011;29285;52.128;21.060;2023-09-19T23:11:44;5.70;;;3.30;;
43682;SDS011;29285;52.128;21.060;2023-09-19T23:16:45;8.10;;;4.10;;
43682;SDS011;29285;52.128;21.060;2023-09-19T23:21:57;6.30;;;3.40;;
43682;SDS011;29285;52.128;21.060;2023-09-19T23:27:09;4.20;;;3.80;;
43682;SDS011;29285;52.128;21.060;2023-09-19T23:32:19;5.70;;;3.10;;
43682;SDS011;29285;52.128;21.060;2023-09-19T23:37:22;5.60;;;3.20;;
43682;SDS011;29285;52.128;21.060;2023-09-19T23:42:23;3.80;;;3.40;;
43682;SDS011;29285;52.128;21.060;2023-09-19T23:47:24;3.70;;;2.70;;
43682;SDS011;29285;52.128;21.060;2023-09-19T23:52:26;6.10;;;3.60;;
43682;SDS011;29285;52.128;21.060;2023-09-19T23:57:28;3.10;;;2.70;;
